Time;durP1;ratioP1;P1;durP2;ratioP2;P2;SDS_P1;SDS_P2;PMS_P1;PMS_P2;Temp;Humidity;BMP_temperature;BMP_pressure;BME280_temperature;BME280_humidity;BME280_pressure;Samples;Min_cycle;Max_cycle;Signal;HPM_P1;HPM_P2
2022/05/18 00:01:34;;;;;;;10.27;8.73;;;;;;;13.75;95.81;100333.09;6246068;22;20019;-81
2022/05/18 00:04:00;;;;;;;11.32;7.80;;;;;;;13.73;96.08;100338.34;6246854;22;20004;-81
2022/05/18 00:06:26;;;;;;;11.45;8.75;;;;;;;13.67;96.39;100337.34;6246470;22;20015;-81
2022/05/18 00:08:51;;;;;;;11.23;8.70;;;;;;;13.68;96.38;100341.72;6246769;22;20317;-82
2022/05/18 00:11:19;;;;;;;12.32;8.18;;;;;;;13.66;96.59;100344.19;6247887;22;20086;-82
2022/05/18 00:13:48;;;;;;;10.75;8.82;;;;;;;13.61;96.63;100339.19;6273595;22;20035;-82
2022/05/18 00:16:15;;;;;;;11.85;8.10;;;;;;;13.57;96.58;100332.94;6247176;22;20008;-82
2022/05/18 00:18:40;;;;;;;11.40;8.15;;;;;;;13.57;96.68;100343.31;6247376;22;20011;-82
2022/05/18 00:21:06;;;;;;;10.07;8.02;;;;;;;13.53;97.10;100335.06;6272598;22;20438;-81
2022/05/18 00:23:33;;;;;;;10.60;7.63;;;;;;;13.57;97.11;100341.31;6274880;22;20012;-81
2022/05/18 00:25:59;;;;;;;12.98;8.70;;;;;;;13.47;96.63;100340.44;6274307;22;20011;-81
2022/05/18 00:28:25;;;;;;;10.18;8.02;;;;;;;13.51;97.05;100345.88;6247063;22;20069;-81
2022/05/18 00:30:51;;;;;;;13.75;8.68;;;;;;;13.49;97.17;100342.78;6247500;22;20000;-81
2022/05/18 00:33:17;;;;;;;9.23;8.15;;;;;;;13.48;97.18;100352.34;6247227;22;20015;-81
2022/05/18 00:35:43;;;;;;;12.48;8.50;;;;;;;13.44;97.24;100360.06;6247836;22;20008;-81
2022/05/18 00:38:09;;;;;;;9.93;8.68;;;;;;;13.42;96.90;100365.31;6272970;22;20328;-81
2022/05/18 00:40:37;;;;;;;11.88;8.50;;;;;;;13.42;97.26;100371.66;6274245;22;20352;-81
2022/05/18 00:43:03;;;;;;;10.48;7.90;;;;;;;13.37;97.20;100375.00;6274486;22;20424;-81
2022/05/18 00:45:29;;;;;;;12.60;8.55;;;;;;;13.34;97.37;100375.13;6246522;22;20007;-81
2022/05/18 00:47:54;;;;;;;11.05;8.63;;;;;;;13.32;97.60;100375.56;6246406;22;20420;-81
2022/05/18 00:50:25;;;;;;;10.23;8.77;;;;;;;13.35;97.54;100383.03;6274086;22;20042;-81
2022/05/18 00:53:03;;;;;;;10.70;8.55;;;;;;;13.31;97.27;100381.56;6246722;22;20034;-82
2022/05/18 00:55:32;;;;;;;10.20;8.18;;;;;;;13.28;97.76;100393.63;6274690;22;20008;-82
2022/05/18 00:58:21;;;;;;;12.82;8.52;;;;;;;13.23;97.85;100396.97;6245404;22;20087;-81
2022/05/18 01:03:20;;;;;;;9.88;8.40;;;;;;;13.19;97.59;100399.06;6237545;23;20401;-85
2022/05/18 01:05:50;;;;;;;9.70;8.20;;;;;;;13.17;97.93;100405.13;6216852;23;20339;-85
2022/05/18 01:08:21;;;;;;;10.00;8.50;;;;;;;13.13;98.04;100403.66;6190800;23;20016;-85
2022/05/18 01:10:46;;;;;;;10.95;8.23;;;;;;;13.11;97.89;100406.09;6216726;23;20492;-85
2022/05/18 01:13:12;;;;;;;11.90;8.27;;;;;;;13.08;98.12;100414.09;6241636;23;20083;-85
2022/05/18 01:15:37;;;;;;;11.70;8.65;;;;;;;13.06;98.45;100405.41;6191959;23;20020;-85
2022/05/18 01:18:03;;;;;;;11.60;8.25;;;;;;;13.02;98.92;100415.88;6243082;23;20158;-83
2022/05/18 01:20:33;;;;;;;12.35;8.15;;;;;;;13.00;99.11;100415.53;6243799;23;20000;-83
2022/05/18 01:23:28;;;;;;;9.68;7.45;;;;;;;13.00;98.53;100418.34;6242018;23;20074;-83
2022/05/18 01:26:12;;;;;;;11.05;7.75;;;;;;;12.98;98.06;100423.56;6214477;23;20016;-83
2022/05/18 01:28:52;;;;;;;9.50;8.20;;;;;;;12.94;98.84;100414.53;6216263;23;20492;-83
2022/05/18 01:31:18;;;;;;;11.32;8.27;;;;;;;12.97;98.74;100424.78;6215804;23;20090;-83
2022/05/18 01:33:44;;;;;;;9.05;7.72;;;;;;;12.95;99.25;100427.22;6244027;23;20039;-83
2022/05/18 01:36:09;;;;;;;10.18;8.30;;;;;;;12.88;99.63;100421.09;6243859;23;20009;-84
2022/05/18 01:38:34;;;;;;;10.80;7.95;;;;;;;12.86;99.93;100434.69;6244345;23;20482;-83
2022/05/18 01:41:10;;;;;;;12.70;9.50;;;;;;;12.82;100.00;100429.22;6217131;23;20082;-84
2022/05/18 01:43:39;;;;;;;12.93;8.25;;;;;;;12.77;100.00;100427.00;6216980;23;20101;-84
2022/05/18 01:46:08;;;;;;;11.27;8.45;;;;;;;12.78;100.00;100431.31;6216944;23;20013;-84
2022/05/18 01:48:37;;;;;;;11.07;8.00;;;;;;;12.68;100.00;100429.63;6243708;23;20083;-83
2022/05/18 01:51:05;;;;;;;11.55;8.68;;;;;;;12.73;100.00;100436.66;6216900;23;20043;-83
2022/05/18 01:53:31;;;;;;;10.48;8.48;;;;;;;12.70;100.00;100438.31;6243686;23;20085;-84
2022/05/18 01:55:57;;;;;;;11.23;9.00;;;;;;;12.69;100.00;100442.34;6243927;23;20008;-83
2022/05/18 01:58:23;;;;;;;10.98;8.70;;;;;;;12.66;100.00;100432.06;6242880;23;20000;-84
2022/05/18 02:00:50;;;;;;;10.52;8.75;;;;;;;12.67;100.00;100438.41;6241724;23;20016;-83
2022/05/18 02:03:16;;;;;;;11.57;8.65;;;;;;;12.65;100.00;100440.88;6243253;23;20023;-83
2022/05/18 02:05:42;;;;;;;10.00;8.45;;;;;;;12.64;100.00;100440.09;6243479;23;20350;-84
2022/05/18 02:08:09;;;;;;;11.38;9.10;;;;;;;12.64;100.00;100437.31;6242531;23;20004;-84
2022/05/18 02:10:35;;;;;;;10.98;8.82;;;;;;;12.60;100.00;100442.97;6244107;23;20012;-84
2022/05/18 02:13:01;;;;;;;12.10;8.70;;;;;;;12.59;100.00;100437.84;6241966;23;20020;-84
2022/05/18 02:15:27;;;;;;;10.35;8.43;;;;;;;12.57;100.00;100443.88;6243690;23;20031;-84
2022/05/18 02:17:52;;;;;;;11.55;8.30;;;;;;;12.60;100.00;100450.53;6243626;23;20000;-84
2022/05/18 02:20:19;;;;;;;13.32;9.40;;;;;;;12.54;100.00;100453.06;6243451;23;20065;-84
2022/05/18 02:22:45;;;;;;;11.02;8.70;;;;;;;12.57;100.00;100451.44;6243728;23;20008;-83
2022/05/18 02:25:10;;;;;;;14.38;8.27;;;;;;;12.58;100.00;100456.53;6242925;23;20016;-84
2022/05/18 02:27:36;;;;;;;12.15;9.23;;;;;;;12.55;100.00;100453.88;6216375;23;20013;-84
2022/05/18 02:30:03;;;;;;;11.88;8.40;;;;;;;12.52;100.00;100451.97;6242269;23;20012;-84
2022/05/18 02:32:29;;;;;;;11.55;8.90;;;;;;;12.55;100.00;100462.22;6242417;23;20079;-84
2022/05/18 02:34:54;;;;;;;11.10;8.60;;;;;;;12.51;100.00;100453.19;6243685;23;20044;-84
2022/05/18 02:37:20;;;;;;;9.95;8.88;;;;;;;12.44;100.00;100458.94;6243007;23;20431;-84
2022/05/18 02:39:45;;;;;;;11.80;8.95;;;;;;;12.49;100.00;100462.00;6242631;23;20062;-84
2022/05/18 02:42:11;;;;;;;12.07;8.85;;;;;;;12.42;100.00;100461.38;6215096;23;20008;-83
2022/05/18 02:44:36;;;;;;;11.30;9.60;;;;;;;12.40;100.00;100452.69;6243304;23;20094;-84
2022/05/18 02:47:03;;;;;;;11.40;9.15;;;;;;;12.42;100.00;100478.06;6215546;23;20016;-84
2022/05/18 02:49:29;;;;;;;12.88;9.30;;;;;;;12.42;100.00;100478.84;6216386;23;20406;-84
2022/05/18 02:51:55;;;;;;;12.93;9.98;;;;;;;12.41;100.00;100484.88;6243192;23;20031;-85
2022/05/18 02:57:06;;;;;;;11.18;9.80;;;;;;;12.36;100.00;100491.75;6243057;23;20034;-85
2022/05/18 02:59:32;;;;;;;13.63;9.48;;;;;;;12.35;100.00;100489.41;6243696;23;20381;-85
2022/05/18 03:01:57;;;;;;;11.98;10.00;;;;;;;12.30;100.00;100492.69;6243119;23;20012;-85
2022/05/18 03:04:23;;;;;;;11.57;9.15;;;;;;;12.27;100.00;100490.81;6242932;23;20016;-85
2022/05/18 03:06:49;;;;;;;11.45;9.98;;;;;;;12.26;100.00;100497.56;6243179;23;20065;-85
2022/05/18 03:09:15;;;;;;;11.20;10.00;;;;;;;12.24;100.00;100508.38;6242880;23;20012;-85
2022/05/18 03:11:41;;;;;;;10.48;9.43;;;;;;;12.20;100.00;100505.69;6243637;23;20061;-85
2022/05/18 03:14:06;;;;;;;11.90;10.00;;;;;;;12.18;100.00;100507.31;6216461;23;20440;-84
2022/05/18 03:16:32;;;;;;;13.70;10.00;;;;;;;12.15;100.00;100511.78;6216096;23;20008;-85
2022/05/18 03:18:58;;;;;;;11.40;10.20;;;;;;;12.14;100.00;100516.53;6216318;23;20334;-85
2022/05/18 03:24:09;;;;;;;14.18;10.57;;;;;;;12.08;100.00;100531.41;6242569;23;20405;-85
2022/05/18 03:26:34;;;;;;;11.50;10.15;;;;;;;12.04;100.00;100531.50;6215698;23;20016;-85
2022/05/18 03:28:59;;;;;;;13.52;10.35;;;;;;;12.06;100.00;100533.84;6242765;23;20445;-85
2022/05/18 03:31:26;;;;;;;11.38;10.15;;;;;;;11.97;100.00;100514.97;6215910;23;20020;-85
2022/05/18 03:33:54;;;;;;;12.40;10.82;;;;;;;12.03;100.00;100538.28;6215564;23;20569;-85
2022/05/18 03:36:20;;;;;;;14.57;10.20;;;;;;;12.00;100.00;100539.16;6215924;23;20315;-85
2022/05/18 03:38:47;;;;;;;10.25;9.15;;;;;;;12.00;100.00;100538.38;6216232;23;20008;-85
2022/05/18 03:41:13;;;;;;;11.15;9.63;;;;;;;11.99;100.00;100548.72;6243498;23;20015;-85
2022/05/18 03:43:39;;;;;;;11.85;10.05;;;;;;;11.99;100.00;100556.25;6217903;23;20042;-85
2022/05/18 03:46:05;;;;;;;12.23;10.32;;;;;;;12.03;100.00;100559.75;6244540;23;20008;-85
2022/05/18 03:48:32;;;;;;;13.07;10.23;;;;;;;12.03;100.00;100568.88;6243250;23;20007;-85
2022/05/18 03:50:59;;;;;;;12.95;10.73;;;;;;;11.97;100.00;100559.47;6244666;23;20504;-84
2022/05/18 03:53:25;;;;;;;12.68;11.35;;;;;;;12.03;100.00;100571.66;6242605;23;20023;-84
2022/05/18 03:55:51;;;;;;;13.90;10.60;;;;;;;12.04;100.00;100573.22;6243846;23;20322;-84
2022/05/18 03:58:17;;;;;;;11.93;10.52;;;;;;;12.06;100.00;100579.13;6217799;23;20018;-85
2022/05/18 04:00:44;;;;;;;13.65;10.05;;;;;;;12.08;100.00;100582.25;6243156;23;20387;-84
2022/05/18 04:03:11;;;;;;;14.10;9.82;;;;;;;12.12;100.00;100585.75;6216391;23;20063;-85
2022/05/18 04:05:40;;;;;;;11.40;9.70;;;;;;;12.11;100.00;100578.59;6216307;23;20026;-84
2022/05/18 04:08:09;;;;;;;13.25;10.13;;;;;;;12.15;100.00;100578.50;6216677;23;20087;-84
2022/05/18 04:10:36;;;;;;;13.98;10.05;;;;;;;12.15;100.00;100593.19;6244416;23;20008;-84
2022/05/18 04:13:01;;;;;;;11.05;9.82;;;;;;;12.20;100.00;100588.34;6244137;23;20043;-84
2022/05/18 04:15:27;;;;;;;11.63;10.27;;;;;;;12.18;100.00;100579.63;6243284;23;20234;-84
2022/05/18 04:17:53;;;;;;;10.68;9.48;;;;;;;12.26;100.00;100598.50;6217203;23;20446;-84
2022/05/18 04:20:21;;;;;;;12.48;10.10;;;;;;;12.30;100.00;100603.97;6215703;23;20042;-84
2022/05/18 04:22:48;;;;;;;13.05;10.15;;;;;;;12.31;100.00;100613.88;6241150;23;20494;-84
2022/05/18 04:25:18;;;;;;;12.73;9.65;;;;;;;12.36;100.00;100614.16;6241730;23;20011;-84
2022/05/18 04:27:47;;;;;;;10.85;9.75;;;;;;;12.37;100.00;100612.16;6214662;23;20019;-84
2022/05/18 04:30:14;;;;;;;15.18;10.27;;;;;;;12.48;100.00;100621.00;6216827;23;20074;-84
2022/05/18 04:32:40;;;;;;;10.60;9.30;;;;;;;12.48;100.00;100610.66;6242927;23;20040;-84
2022/05/18 04:35:08;;;;;;;13.27;10.35;;;;;;;12.60;99.73;100628.66;6216411;23;20422;-84
2022/05/18 04:37:34;;;;;;;12.75;9.07;;;;;;;12.57;99.55;100626.75;6243838;23;20092;-84
2022/05/18 04:40:00;;;;;;;12.27;10.00;;;;;;;12.56;99.78;100625.19;6216562;23;20004;-84
2022/05/18 04:42:26;;;;;;;14.68;10.10;;;;;;;12.65;99.59;100630.91;6238954;22;20047;-84
2022/05/18 04:44:52;;;;;;;16.52;9.77;;;;;;;12.76;98.87;100647.34;6241425;23;20429;-84
2022/05/18 04:47:21;;;;;;;13.15;10.13;;;;;;;12.75;98.03;100646.53;6240877;23;20008;-84
2022/05/18 04:49:46;;;;;;;13.77;9.65;;;;;;;12.87;97.96;100654.19;6240864;23;20019;-84
2022/05/18 04:52:12;;;;;;;14.35;9.45;;;;;;;12.92;97.43;100648.09;6238721;23;20388;-84
2022/05/18 04:54:37;;;;;;;14.55;10.15;;;;;;;12.98;96.73;100659.50;6239090;23;20027;-84
2022/05/18 04:57:04;;;;;;;10.75;9.52;;;;;;;13.00;96.62;100657.81;6238082;23;20016;-84
2022/05/18 04:59:29;;;;;;;13.70;10.00;;;;;;;13.12;96.13;100663.91;6239704;23;20067;-84
2022/05/18 05:01:55;;;;;;;13.52;9.60;;;;;;;13.19;95.58;100656.13;6239312;23;20016;-83
2022/05/18 05:04:21;;;;;;;13.02;10.23;;;;;;;13.22;95.33;100665.63;6241024;23;20392;-84
2022/05/18 05:06:46;;;;;;;11.65;9.35;;;;;;;13.34;94.82;100664.91;6239941;23;20016;-83
2022/05/18 05:09:12;;;;;;;12.73;9.57;;;;;;;13.46;94.05;100678.09;6240542;23;20801;-83
2022/05/18 05:11:39;;;;;;;12.30;9.65;;;;;;;13.55;93.29;100681.00;6240221;23;20012;-84
2022/05/18 05:14:05;;;;;;;12.13;9.10;;;;;;;13.58;92.58;100690.50;6237559;23;20441;-85
2022/05/18 05:16:32;;;;;;;11.10;8.75;;;;;;;13.56;92.73;100688.16;6238739;23;20008;-84
2022/05/18 05:18:57;;;;;;;9.57;8.57;;;;;;;13.61;91.47;100700.75;6186695;23;20043;-84
2022/05/18 05:21:23;;;;;;;12.48;8.85;;;;;;;13.67;91.29;100699.75;6239816;23;20450;-84
2022/05/18 05:23:49;;;;;;;12.82;9.18;;;;;;;13.84;91.08;100715.19;6240717;23;20000;-84
2022/05/18 05:26:15;;;;;;;14.52;9.00;;;;;;;14.01;91.43;100713.91;6238638;23;20063;-84
2022/05/18 05:28:41;;;;;;;14.05;9.00;;;;;;;14.26;88.61;100723.53;6190280;23;20087;-84
2022/05/18 05:31:09;;;;;;;14.48;8.90;;;;;;;14.33;86.75;100731.66;6215789;23;20008;-84
2022/05/18 05:33:35;;;;;;;13.60;9.35;;;;;;;14.46;86.19;100733.28;6215965;23;20426;-85
2022/05/18 05:36:01;;;;;;;10.82;8.05;;;;;;;14.68;84.91;100727.00;6242221;23;20031;-85
2022/05/18 05:38:27;;;;;;;11.68;7.88;;;;;;;14.80;84.16;100740.94;6214434;23;20070;-85
2022/05/18 05:40:54;;;;;;;10.65;8.20;;;;;;;14.78;82.53;100743.41;6213835;23;20012;-85
2022/05/18 05:43:19;;;;;;;10.32;7.93;;;;;;;14.82;83.21;100737.69;6240095;23;20008;-85
2022/05/18 05:46:14;;;;;;;10.27;7.43;;;;;;;15.12;82.21;100747.50;6241656;23;20008;-85
2022/05/18 05:48:41;;;;;;;25.98;8.43;;;;;;;15.29;80.96;100749.66;6241942;23;20343;-85
2022/05/18 05:51:11;;;;;;;12.57;8.88;;;;;;;15.37;80.83;100755.78;6240661;23;20099;-85
2022/05/18 05:53:39;;;;;;;9.95;8.10;;;;;;;15.43;80.83;100762.38;6214230;23;20012;-84
2022/05/18 05:56:06;;;;;;;10.70;7.97;;;;;;;15.55;80.13;100766.38;6213484;23;20004;-84
2022/05/18 05:58:33;;;;;;;8.60;7.70;;;;;;;15.54;80.12;100764.81;6215724;23;20023;-84
2022/05/18 06:00:59;;;;;;;13.38;8.52;;;;;;;15.53;80.49;100766.06;6240641;23;20015;-84
2022/05/18 06:03:25;;;;;;;11.75;7.75;;;;;;;15.69;78.68;100777.06;6213800;23;20074;-85
2022/05/18 06:05:51;;;;;;;13.85;7.88;;;;;;;15.72;78.83;100776.16;6239784;23;20012;-85
2022/05/18 06:08:17;;;;;;;10.40;7.90;;;;;;;16.02;77.47;100794.22;6241789;23;20058;-83
2022/05/18 06:10:42;;;;;;;10.43;7.60;;;;;;;16.23;76.49;100783.03;6213948;23;20435;-83
2022/05/18 06:13:11;;;;;;;11.32;7.07;;;;;;;16.41;74.50;100779.56;6241295;23;20087;-82
2022/05/18 06:15:36;;;;;;;8.38;7.05;;;;;;;16.48;74.37;100775.69;6242415;23;20014;-82
2022/05/18 06:18:21;;;;;;;9.63;7.10;;;;;;;16.63;74.35;100785.09;6214786;23;20015;-83
2022/05/18 06:20:47;;;;;;;10.63;7.53;;;;;;;16.59;73.40;100781.66;6243156;23;20019;-83
2022/05/18 06:23:14;;;;;;;11.23;7.45;;;;;;;16.82;72.17;100797.19;6242721;23;20011;-84
2022/05/18 06:25:39;;;;;;;9.63;7.07;;;;;;;16.84;72.21;100808.69;6215940;23;20019;-83
2022/05/18 06:28:06;;;;;;;12.50;7.60;;;;;;;16.83;72.36;100810.72;6215878;23;20012;-82
2022/05/18 06:30:32;;;;;;;11.82;7.35;;;;;;;16.93;71.83;100805.94;6242670;23;20062;-83
2022/05/18 06:32:58;;;;;;;8.35;7.00;;;;;;;17.17;71.32;100816.13;6242957;23;20476;-83
2022/05/18 06:35:24;;;;;;;9.05;7.20;;;;;;;17.23;69.62;100824.69;6243160;23;20016;-83
2022/05/18 06:37:49;;;;;;;10.40;7.68;;;;;;;17.18;69.59;100823.31;6242965;23;20019;-83
2022/05/18 06:40:16;;;;;;;10.88;7.35;;;;;;;17.28;69.28;100832.50;6243018;23;20008;-83
2022/05/18 06:42:41;;;;;;;10.90;6.70;;;;;;;17.54;68.82;100833.00;6216688;23;20008;-83
2022/05/18 06:45:08;;;;;;;8.88;6.40;;;;;;;17.64;68.13;100831.78;6243240;23;20050;-83
2022/05/18 06:47:34;;;;;;;14.18;6.47;;;;;;;17.72;65.44;100830.25;6243000;23;20491;-83
2022/05/18 06:50:00;;;;;;;9.32;6.22;;;;;;;17.86;65.56;100837.28;6243198;23;20012;-83
2022/05/18 06:52:25;;;;;;;10.85;6.18;;;;;;;17.91;65.50;100845.06;6242840;23;20063;-83
2022/05/18 06:54:51;;;;;;;9.65;6.30;;;;;;;18.19;65.18;100841.00;6243381;23;20012;-83
2022/05/18 06:57:17;;;;;;;10.48;5.70;;;;;;;18.61;64.56;100858.72;6242760;23;20073;-83
2022/05/18 06:59:43;;;;;;;10.00;6.00;;;;;;;18.89;63.05;100861.41;6242939;23;20037;-83
2022/05/18 07:02:09;;;;;;;12.77;5.88;;;;;;;18.96;60.85;100864.69;6191270;23;20012;-83
2022/05/18 07:04:34;;;;;;;10.15;4.80;;;;;;;19.19;60.11;100868.00;6242495;23;20099;-83
2022/05/18 07:07:00;;;;;;;8.00;4.68;;;;;;;19.42;57.47;100865.25;6243266;23;20012;-83
2022/05/18 07:09:27;;;;;;;7.38;4.80;;;;;;;19.53;57.27;100870.38;6242403;23;20036;-83
2022/05/18 07:11:53;;;;;;;8.88;5.18;;;;;;;19.48;55.62;100877.41;6243135;23;20008;-83
2022/05/18 07:14:26;;;;;;;8.18;4.93;;;;;;;19.40;54.48;100879.00;6243667;23;20018;-83
2022/05/18 07:16:52;;;;;;;6.67;4.87;;;;;;;19.53;55.61;100876.75;6244911;23;20012;-83
2022/05/18 07:19:19;;;;;;;9.30;4.75;;;;;;;19.64;55.04;100878.25;6218047;23;20258;-83
2022/05/18 07:21:45;;;;;;;13.27;4.85;;;;;;;19.75;51.06;100895.38;6244991;23;20070;-83
2022/05/18 07:24:11;;;;;;;7.28;4.88;;;;;;;19.89;50.67;100884.19;6217999;23;20348;-83
2022/05/18 07:26:36;;;;;;;10.13;4.20;;;;;;;20.09;50.52;100894.81;6244700;23;20016;-83
2022/05/18 07:29:04;;;;;;;7.35;4.50;;;;;;;20.25;49.77;100897.19;6217591;23;20015;-83
2022/05/18 07:31:31;;;;;;;9.65;4.10;;;;;;;20.26;49.60;100893.06;6244508;23;20067;-84
2022/05/18 07:33:56;;;;;;;6.05;3.50;;;;;;;20.30;46.88;100885.25;6244667;23;20016;-84
2022/05/18 07:36:22;;;;;;;5.22;3.30;;;;;;;20.33;46.00;100895.56;6244573;23;20393;-83
2022/05/18 07:38:48;;;;;;;7.78;3.53;;;;;;;20.37;45.00;100893.34;6192761;23;20079;-84
2022/05/18 07:41:15;;;;;;;5.57;3.67;;;;;;;20.35;44.16;100892.25;6244938;23;20020;-84
2022/05/18 07:43:41;;;;;;;10.20;3.80;;;;;;;20.63;44.53;100889.94;6192360;23;20449;-83
2022/05/18 07:46:08;;;;;;;7.32;3.40;;;;;;;20.74;44.24;100881.69;6244922;23;20008;-84
2022/05/18 07:48:35;;;;;;;6.47;3.17;;;;;;;20.84;42.36;100883.13;6244150;23;20012;-84
2022/05/18 07:51:00;;;;;;;6.05;3.40;;;;;;;21.08;42.01;100895.03;6217780;23;20441;-84
2022/05/18 07:53:26;;;;;;;10.02;3.30;;;;;;;21.32;40.27;100907.00;6244214;23;20012;-84
2022/05/18 07:55:52;;;;;;;5.85;2.92;;;;;;;21.45;39.20;100900.25;6244689;23;20010;-84
2022/05/18 07:58:19;;;;;;;9.20;3.40;;;;;;;21.56;39.36;100901.16;6192758;23;20015;-83
2022/05/18 08:00:46;;;;;;;24.63;4.22;;;;;;;21.29;38.15;100899.50;6244900;23;20069;-84
2022/05/18 08:03:12;;;;;;;6.88;2.90;;;;;;;21.19;38.46;100895.25;6217572;23;20008;-83
2022/05/18 08:05:39;;;;;;;5.88;3.05;;;;;;;21.42;38.92;100901.22;6217356;23;20016;-83
2022/05/18 08:08:12;;;;;;;4.32;2.78;;;;;;;21.62;38.49;100895.59;6217352;23;20340;-83
2022/05/18 08:16:07;;;;;;;12.77;3.20;;;;;;;21.73;34.96;100898.56;6244595;23;20008;-84
2022/05/18 08:18:33;;;;;;;5.47;2.22;;;;;;;21.67;36.25;100890.03;6243993;23;20015;-83
2022/05/18 08:20:58;;;;;;;4.13;2.60;;;;;;;21.92;34.61;100899.88;6217778;23;20008;-84
2022/05/18 08:23:25;;;;;;;6.32;2.50;;;;;;;22.10;35.18;100908.06;6244082;23;20073;-83
2022/05/18 08:25:54;;;;;;;7.10;2.20;;;;;;;22.27;33.09;100909.03;6243823;23;20340;-83
2022/05/18 08:28:19;;;;;;;6.78;2.13;;;;;;;22.29;32.08;100905.69;6244270;23;20012;-84
2022/05/18 08:30:45;;;;;;;7.88;2.10;;;;;;;22.35;31.42;100914.25;6244228;23;20015;-84
2022/05/18 08:33:11;;;;;;;6.35;2.17;;;;;;;22.26;31.77;100901.81;6244126;23;20378;-84
2022/05/18 08:35:37;;;;;;;5.78;2.20;;;;;;;22.23;31.39;100911.31;6217507;23;20019;-84
2022/05/18 08:38:03;;;;;;;3.75;2.05;;;;;;;22.57;31.25;100918.06;6244941;23;20039;-84
2022/05/18 08:40:28;;;;;;;4.28;2.22;;;;;;;22.65;31.97;100909.91;6243930;23;20450;-83
2022/05/18 08:42:59;;;;;;;4.97;2.38;;;;;;;22.67;30.69;100904.53;6244336;23;20000;-84
2022/05/18 08:45:29;;;;;;;3.28;2.30;;;;;;;22.70;31.93;100912.06;6216942;23;20449;-83
2022/05/18 08:48:07;;;;;;;4.57;2.25;;;;;;;22.56;33.33;100912.94;6217963;23;20345;-84
2022/05/18 08:50:33;;;;;;;5.97;2.50;;;;;;;22.87;32.95;100917.84;6216872;23;20027;-83
2022/05/18 08:53:08;;;;;;;6.30;2.10;;;;;;;22.99;30.34;100911.78;6217438;23;20023;-84
2022/05/18 08:55:58;;;;;;;3.63;1.90;;;;;;;23.06;30.62;100910.56;6244053;23;20442;-84
2022/05/18 08:58:32;;;;;;;21.67;3.47;;;;;;;23.23;29.53;100919.94;6244079;23;20338;-84
2022/05/18 09:01:05;;;;;;;5.50;2.05;;;;;;;23.53;29.05;100917.63;6217117;23;20008;-84
2022/05/18 09:03:31;;;;;;;;;;;;;;;23.45;29.16;100913.69;6243900;23;20050;-84
2022/05/18 09:06:01;;;;;;;4.72;2.10;;;;;;;23.55;29.05;100923.53;6217263;23;19915;-84
2022/05/18 09:08:35;;;;;;;5.88;1.80;;;;;;;23.74;28.64;100919.00;6216889;23;20497;-83
2022/05/18 09:11:30;;;;;;;3.85;2.05;;;;;;;24.00;28.32;100913.19;6244014;23;20013;-83
2022/05/18 09:13:56;;;;;;;4.07;2.08;;;;;;;24.05;29.10;100910.41;6230041;23;20089;-84
2022/05/18 09:16:44;;;;;;;7.65;2.30;;;;;;;24.06;29.00;100916.84;6217417;23;20020;-84
2022/05/18 09:19:46;;;;;;;5.05;2.30;;;;;;;24.02;28.82;100910.66;6192163;23;20012;-84
2022/05/18 09:22:24;;;;;;;5.03;2.13;;;;;;;24.07;27.29;100912.69;6243794;23;20015;-84
2022/05/18 09:25:14;;;;;;;6.20;2.30;;;;;;;24.05;28.73;100913.22;6216778;23;20091;-83
2022/05/18 09:27:58;;;;;;;7.07;2.67;;;;;;;23.50;28.66;100905.22;6216588;23;20043;-86
2022/05/18 09:30:57;;;;;;;5.03;2.47;;;;;;;23.70;28.80;100904.28;6243649;23;20043;-82
2022/05/18 09:33:29;;;;;;;5.28;2.10;;;;;;;23.96;28.07;100916.28;6231164;23;20393;-84
2022/05/18 09:36:16;;;;;;;5.25;2.20;;;;;;;24.20;27.61;100915.09;6216927;22;20012;-87
2022/05/18 09:38:53;;;;;;;9.35;2.05;;;;;;;24.41;28.88;100908.72;6243400;23;20022;-87
2022/05/18 09:41:21;;;;;;;4.32;1.95;;;;;;;24.69;26.29;100911.59;6217652;23;20065;-87
2022/05/18 09:44:07;;;;;;;4.85;1.85;;;;;;;24.75;27.05;100915.19;6243046;23;20015;-85
2022/05/18 09:46:34;;;;;;;4.38;2.08;;;;;;;24.79;28.01;100915.72;6217242;23;20027;-86
2022/05/18 09:49:34;;;;;;;4.30;1.92;;;;;;;24.93;26.86;100914.75;6216430;23;20035;-88
2022/05/18 09:52:02;;;;;;;6.55;1.80;;;;;;;24.98;25.95;100928.16;6232158;23;20011;-86
2022/05/18 09:54:32;;;;;;;6.95;1.98;;;;;;;24.91;24.31;100920.13;6216619;23;20006;-86
2022/05/18 09:57:28;;;;;;;5.93;2.03;;;;;;;25.13;25.13;100915.75;6216737;23;20366;-86
2022/05/18 10:00:17;;;;;;;4.50;1.83;;;;;;;24.97;23.66;100909.56;6211359;23;20023;-86
2022/05/18 10:08:26;;;;;;;5.47;1.70;;;;;;;24.90;24.94;100901.59;6220466;23;20012;-87
2022/05/18 10:10:58;;;;;;;7.60;2.67;;;;;;;24.76;25.65;100905.41;6215285;23;20012;-83
2022/05/18 10:13:28;;;;;;;17.35;2.88;;;;;;;25.11;25.58;100909.84;6242202;23;20023;-83
2022/05/18 10:16:03;;;;;;;5.10;2.10;;;;;;;24.71;25.00;100906.16;6215409;23;20039;-84
2022/05/18 10:18:41;;;;;;;6.47;1.95;;;;;;;24.22;26.39;100915.38;6241468;23;20012;-83
2022/05/18 10:21:09;;;;;;;4.20;1.90;;;;;;;24.09;26.16;100913.75;6215469;23;20043;-82
2022/05/18 10:23:39;;;;;;;3.40;2.17;;;;;;;23.93;26.38;100910.84;6242182;23;20008;-82
2022/05/18 10:26:10;;;;;;;6.35;2.45;;;;;;;24.22;27.79;100912.53;6215232;23;20016;-85
2022/05/18 10:28:40;;;;;;;4.90;2.22;;;;;;;24.25;27.03;100895.28;6216088;23;20058;-82
2022/05/18 10:31:08;;;;;;;5.63;2.20;;;;;;;24.46;27.21;100910.03;6216394;23;20084;-82
2022/05/18 10:33:36;;;;;;;4.55;2.20;;;;;;;24.17;25.79;100904.78;6216231;23;20019;-83
2022/05/18 10:36:16;;;;;;;6.03;1.77;;;;;;;23.91;26.27;100904.91;6216892;23;20069;-83
2022/05/18 10:38:53;;;;;;;6.50;2.20;;;;;;;24.14;27.21;100898.06;6242524;23;20028;-84
2022/05/18 10:41:24;;;;;;;4.00;1.98;;;;;;;24.35;26.76;100881.63;6216733;23;20717;-83
2022/05/18 10:44:06;;;;;;;5.63;2.33;;;;;;;24.47;27.32;100903.03;6242365;23;20074;-82
2022/05/18 10:46:38;;;;;;;10.52;1.92;;;;;;;24.49;26.80;100909.78;6214012;23;20056;-84
2022/05/18 10:49:27;;;;;;;6.13;1.73;;;;;;;24.78;25.95;100908.53;6215396;23;20020;-83
2022/05/18 10:51:52;;;;;;;7.15;2.50;;;;;;;24.96;26.11;100891.00;6217266;23;20022;-82
2022/05/18 10:54:23;;;;;;;5.30;2.08;;;;;;;25.22;26.41;100912.66;6216811;23;20005;-84
2022/05/18 10:56:50;;;;;;;3.63;1.80;;;;;;;25.27;26.14;100914.72;6243759;23;20013;-84
2022/05/18 10:59:21;;;;;;;7.15;2.10;;;;;;;25.26;25.85;100913.94;6216652;23;20053;-84
2022/05/18 11:02:21;;;;;;;4.45;1.80;;;;;;;25.36;25.27;100894.56;6242942;23;20277;-84
2022/05/18 11:04:54;;;;;;;3.95;2.03;;;;;;;25.21;24.41;100899.75;6243294;23;20131;-84
2022/05/18 11:07:26;;;;;;;6.63;2.03;;;;;;;25.27;25.69;100903.38;6216948;23;20326;-84
2022/05/18 11:09:52;;;;;;;9.57;2.40;;;;;;;25.07;25.65;100907.25;6242866;23;20034;-88
2022/05/18 11:12:46;;;;;;;6.43;2.10;;;;;;;24.92;26.69;100903.88;6216636;23;20333;-89
2022/05/18 11:15:23;;;;;;;4.28;2.03;;;;;;;24.97;26.62;100903.13;6243291;23;20073;-87
2022/05/18 11:17:58;;;;;;;8.02;2.00;;;;;;;24.86;26.51;100909.59;6243322;23;20026;-87
2022/05/18 11:20:39;;;;;;;4.57;1.80;;;;;;;24.97;25.32;100903.91;6243857;23;20074;-87
2022/05/18 11:23:14;;;;;;;3.42;1.77;;;;;;;25.08;25.10;100903.88;6243534;23;20023;-88
2022/05/18 11:25:59;;;;;;;5.03;1.90;;;;;;;25.10;24.50;100903.38;6242586;23;20020;-87
2022/05/18 11:28:27;;;;;;;3.83;1.60;;;;;;;25.16;22.47;100903.34;6216927;23;20054;-87
2022/05/18 11:31:08;;;;;;;3.83;1.73;;;;;;;25.32;23.59;100902.56;6243490;23;20520;-87
2022/05/18 11:33:54;;;;;;;5.95;1.83;;;;;;;25.56;23.24;100905.63;6216661;23;20040;-87
2022/05/18 11:36:33;;;;;;;6.70;1.85;;;;;;;25.73;24.24;100906.38;6217868;23;20016;-86
2022/05/18 11:39:16;;;;;;;5.20;1.80;;;;;;;25.53;23.18;100903.84;6217249;23;20125;-86
2022/05/18 11:41:53;;;;;;;7.50;2.10;;;;;;;25.47;23.96;100900.22;6217580;23;20008;-87
2022/05/18 11:44:53;;;;;;;5.45;2.20;;;;;;;25.05;24.41;100893.56;6243597;23;20019;-86
2022/05/18 11:47:44;;;;;;;4.25;1.50;;;;;;;24.98;22.66;100899.00;6193404;23;20016;-87